Latest Weather Observations for Mount Gellibrand

IDV60801

Issued at 12:32 am EST Monday 25 July 2016 (issued every 30 minutes, with the page automatically refreshed every 10 minutes)

About weather observations | Map of weather stations | Latest weather observations for VIC | Other Formats
Station Details ID: 090035 Name: MOUNT GELLIBRAND Lat: -38.23 Lon: 143.79 Height: 261.0 m
Data from the previous 72 hours. | See also: Recent months at Mount Gellibrand
Date/Time
EST
Temp
°C
App
Temp
°C
Dew
Point
°C
Rel
Hum
%
Delta-T
°C
Wind Press
QNH
hPa
Press
MSL
hPa
Rain since
9am
mm
Dir  Spd
km/h
Gust
km/h
Spd
kts
Gust
kts
25/12:30am 4.8 -3.5 4.4 97 0.2 NNW 37 43 20 23 1002.8 1003.2 0.4
25/12:00am 4.7 -3.6 4.3 97 0.2 NW 37 46 20 25 1002.8 1003.2 0.4
 
Date/Time
EST
Temp
°C
App
Temp
°C
Dew
Point
°C
Rel
Hum
%
Delta-T
°C
Wind Press
QNH
hPa
Press
MSL
hPa
Rain since
9am
mm
Dir  Spd
km/h
Gust
km/h
Spd
kts
Gust
kts
24/11:30pm 4.9 -3.8 4.2 95 0.3 NNW 39 48 21 26 1002.6 1003.0 0.4
24/11:00pm 4.9 -4.2 4.0 94 0.4 NNW 41 46 22 25 1002.4 1002.7 0.4
24/10:30pm 5.1 -4.0 4.2 94 0.4 NNW 41 46 22 25 1002.2 1002.5 0.4
24/10:00pm 5.1 -4.3 4.2 94 0.4 NW 43 48 23 26 1001.9 1002.2 0.4
24/09:30pm 5.3 -3.4 4.3 93 0.4 NNW 39 46 21 25 1002.0 1002.3 0.4
24/09:00pm 5.5 -2.7 4.6 94 0.4 NNW 37 44 20 24 1002.3 1002.6 0.4
24/08:30pm 5.3 -2.6 4.6 95 0.3 NNW 35 43 19 23 1002.4 1002.7 0.4
24/08:00pm 6.0 -1.8 5.0 93 0.4 NNW 35 41 19 22 1002.3 1002.6 0.4
24/07:30pm 6.2 -2.0 4.5 89 0.7 NNW 37 44 20 24 1002.2 1002.5 0.4
24/07:00pm 7.0 -2.6 4.3 83 1.2 NNW 44 56 24 30 1002.0 1002.3 0.4
24/06:30pm 8.1 -0.4 5.2 82 1.3 N 39 52 21 28 1002.0 1002.3 0.4
24/06:00pm 7.9 1.1 5.2 83 1.2 N 30 37 16 20 1001.9 1002.2 0.4
24/05:30pm 7.3 0.9 5.3 87 0.9 N 28 33 15 18 1002.1 1002.4 0.4
24/05:00pm 7.7 0.5 5.2 84 1.1 N 32 35 17 19 1002.0 1002.3 0.4
24/04:30pm 8.0 0.8 4.9 81 1.4 N 32 37 17 20 1002.3 1002.6 0.4
24/04:00pm 8.2 0.1 5.1 81 1.4 N 37 43 20 23 1002.5 1002.8 0.4
24/03:30pm 8.0 1.4 6.1 88 0.9 N 30 39 16 21 1003.2 1003.6 0.4
24/03:00pm 7.7 0.5 5.8 88 0.9 NNW 33 41 18 22 1003.7 1004.1 0.4
24/02:30pm 7.6 -1.1 5.9 89 0.8 NNW 41 46 22 25 1004.1 1004.4 0.0
24/02:00pm 8.4 -1.5 5.0 79 1.5 NNW 46 56 25 30 1004.3 1004.6 0.0
24/01:30pm 8.5 -1.8 4.5 76 1.8 NNW 48 57 26 31 1004.3 1004.6 0.0
24/01:00pm 8.7 -1.6 4.5 75 1.9 NNW 48 57 26 31 1004.9 1005.2 0.0
24/12:30pm 8.6 -1.3 4.8 77 1.7 NNW 46 57 25 31 1005.5 1005.8 0.0
24/12:00pm 8.2 -1.7 4.8 79 1.5 NNW 46 61 25 33 1005.9 1006.3 0.0
24/11:30am 8.5 0.1 5.8 83 1.2 N 39 48 21 26 1006.8 1007.2 0.0
24/11:00am 7.7 -0.3 5.5 86 1.0 NNW 37 43 20 23 1007.1 1007.5 0.0
24/10:30am 6.9 -0.8 5.2 89 0.8 NNW 35 41 19 22 1007.6 1008.0 0.0
24/10:00am 5.8 -2.1 4.3 90 0.7 NNW 35 43 19 23 1007.9 1008.2 0.0
24/09:30am 5.4 -1.6 4.2 92 0.5 NNW 30 33 16 18 1008.3 1008.6 0.0
24/09:00am 4.3 -2.4 3.4 94 0.4 NNW 28 32 15 17 1008.5 1008.8 8.2
24/08:30am 3.8 -2.6 3.2 96 0.2 NNW 26 32 14 17 1008.7 1009.0 8.2
24/08:00am 3.4 -3.5 2.8 96 0.2 NNW 28 32 15 17 1008.5 1008.8 8.2
24/07:30am 3.0 -4.3 2.4 96 0.2 NNW 30 33 16 18 1008.3 1008.6 8.2
24/07:00am 2.6 -4.0 2.0 96 0.2 NNW 26 30 14 16 1008.5 1008.8 8.2
24/06:30am 2.4 -4.2 2.1 98 0.1 NNW 26 30 14 16 1008.6 1008.9 8.2
24/06:00am 2.3 -4.7 1.9 97 0.2 NNW 28 30 15 16 1008.6 1008.9 8.2
24/05:30am 2.5 -4.5 2.1 97 0.2 NNW 28 33 15 18 1008.7 1009.0 8.2
24/05:00am 2.5 -4.5 2.2 98 0.1 NNW 28 32 15 17 1009.1 1009.5 8.2
24/04:30am 2.2 -4.8 1.9 98 0.1 NNW 28 32 15 17 1009.4 1009.8 8.2
24/04:00am 2.4 -4.6 2.1 98 0.1 NNW 28 32 15 17 1009.7 1010.1 8.2
24/03:30am 2.5 -4.5 2.2 98 0.1 NNW 28 32 15 17 1010.2 1010.6 8.2
24/03:00am 2.7 -4.2 2.6 99 0.0 NW 28 32 15 17 1010.4 1010.8 8.2
24/02:30am 2.6 -3.9 2.5 99 0.0 NW 26 28 14 15 1010.5 1010.9 8.2
24/02:00am 2.7 -3.8 2.7 100 0.0 NW 26 28 14 15 1010.5 1010.9 8.2
24/01:30am 2.9 -2.8 2.9 100 0.0 NW 22 26 12 14 1010.6 1011.0 8.2
24/01:00am 3.2 -2.4 3.2 100 0.0 NW 22 24 12 13 1010.8 1011.2 8.2
24/12:30am 3.5 -1.7 3.5 100 0.0 NW 20 22 11 12 1011.1 1011.5 8.2
24/12:00am 4.0 -1.5 4.0 100 0.0 NW 22 24 12 13 1011.3 1011.7 8.2
 
Date/Time
EST
Temp
°C
App
Temp
°C
Dew
Point
°C
Rel
Hum
%
Delta-T
°C
Wind Press
QNH
hPa
Press
MSL
hPa
Rain since
9am
mm
Dir  Spd
km/h
Gust
km/h
Spd
kts
Gust
kts
23/11:30pm 4.2 -0.9 4.2 100 0.0 WNW 20 26 11 14 1011.5 1011.9 8.2
23/11:00pm 3.9 -1.2 3.9 100 0.0 NW 20 24 11 13 1011.5 1011.9 8.0
23/10:30pm 3.9 -1.6 3.9 100 0.0 NW 22 28 12 15 1011.4 1011.8 8.0
23/10:00pm 3.9 -2.4 3.9 100 0.0 NW 26 32 14 17 1011.4 1011.8 8.0
23/09:30pm 4.0 -2.3 4.0 100 0.0 WNW 26 32 14 17 1011.5 1011.9 8.0
23/09:00pm 4.4 -1.8 4.4 100 0.0 NW 26 32 14 17 1011.3 1011.7 8.0
23/08:30pm 4.5 -1.7 4.5 100 0.0 WNW 26 30 14 16 1011.2 1011.6 8.0
23/08:00pm 4.5 -0.3 4.5 100 0.0 W 19 26 10 14 1011.3 1011.7 8.0
23/07:30pm 4.8 -1.3 4.8 100 0.0 WNW 26 33 14 18 1010.9 1011.3 7.4
23/07:00pm 4.7 -1.4 4.7 100 0.0 WNW 26 32 14 17 1010.3 1010.7 7.4
23/06:30pm 4.8 -1.7 4.7 99 0.0 W 28 35 15 19 1010.2 1010.6 7.4
23/06:00pm 4.9 -0.4 4.8 99 0.0 WNW 22 28 12 15 1009.6 1010.0 7.4
23/05:30pm 5.2 0.3 5.1 99 0.0 WSW 20 30 11 16 1009.5 1009.9 7.2
23/05:00pm 5.2 -2.0 4.8 97 0.2 W 32 39 17 21 1009.0 1009.4 7.2
23/04:30pm 5.2 -2.1 4.6 96 0.3 W 32 43 17 23 1008.5 1008.8 6.8
23/04:02pm 6.6 -1.0 4.1 84 1.1 W 33 57 18 31 1008.3 1008.6 4.0
23/04:00pm 6.8 -0.8 4.1 83 1.2 W 33 43 18 23 1008.2 1008.5 4.0
23/03:30pm 7.0 -0.5 4.7 85 1.0 W 33 50 18 27 1007.3 1007.7 4.0
23/03:00pm 5.9 -2.6 5.2 95 0.3 W 39 56 21 30 1006.9 1007.3 4.0
23/02:49pm 5.7 -3.9 4.5 92 0.5 W 44 63 24 34 1006.6 1007.0 3.8
23/02:30pm 6.0 -0.8 5.1 94 0.4 W 30 39 16 21 1006.5 1006.9 3.6
23/02:00pm 5.0 -4.4 4.3 95 0.3 WSW 43 52 23 28 1006.3 1006.7 3.4
23/01:30pm 3.9 -7.9 2.7 92 0.5 WSW 54 80 29 43 1005.9 1006.3 3.0
23/01:28pm 3.9 -8.4 2.1 88 0.7 WSW 56 80 30 43 1005.8 1006.2 2.6
23/01:27pm 4.5 -7.7 2.5 87 0.8 WSW 56 80 30 43 1005.3 1005.6 2.4
23/01:00pm 6.4 -3.1 4.9 90 0.7 W 44 65 24 35 1005.6 1005.9 2.0
23/12:52pm 5.5 -6.6 3.2 85 1.0 WSW 56 76 30 41 1005.6 1005.9 1.8
23/12:30pm 8.1 -2.7 1.7 64 2.7 WSW 48 65 26 35 1005.2 1005.5 1.8
23/12:08pm 6.5 -1.5 4.0 84 1.1 WSW 35 54 19 29 1005.6 1005.9 1.8
23/12:00pm 5.4 -3.5 3.1 85 1.0 WSW 39 54 21 29 1005.4 1005.7 1.8
23/11:48am 6.3 -2.9 3.6 83 1.2 W 41 61 22 33 1005.7 1006.0 1.0
23/11:30am 7.6 -2.5 4.0 78 1.6 W 46 61 25 33 1005.2 1005.5 0.8
23/11:00am 6.5 -3.6 3.7 82 1.2 W 46 56 25 30 1005.1 1005.4 0.8
23/10:33am 6.7 -1.2 4.4 85 1.0 W 35 54 19 29 1004.8 1005.1 0.8
23/10:30am 6.7 -0.8 4.7 87 0.9 W 33 43 18 23 1004.9 1005.2 0.8
23/10:01am 4.5 -3.2 3.2 91 0.5 WSW 33 52 18 28 1004.5 1004.8 0.8
23/10:00am 4.4 -3.7 3.1 91 0.5 WSW 35 52 19 28 1004.4 1004.7 0.8
23/09:48am 3.7 -6.1 2.2 90 0.6 WSW 43 61 23 33 1004.3 1004.6 0.6
23/09:30am 4.2 -3.7 2.1 86 0.8 WSW 33 41 18 22 1004.3 1004.6 0.0
23/09:00am 4.4 -4.7 1.9 84 1.0 WSW 39 48 21 26 1003.0 1003.4 11.2
23/08:48am 3.9 -6.0 1.4 84 1.0 WSW 43 54 23 29 1002.6 1003.0 11.2
23/08:34am 4.3 -8.2 0.8 78 1.4 WSW 56 76 30 41 1002.1 1002.4 11.2
23/08:30am 4.8 -7.0 0.4 73 1.7 WSW 52 72 28 39 1002.3 1002.6 11.2
23/08:28am 5.0 -6.5 0.2 71 1.9 WSW 50 72 27 39 1002.1 1002.4 11.2
23/08:08am 5.3 -4.6 -0.7 65 2.3 WSW 41 59 22 32 1001.8 1002.1 11.2
23/08:00am 4.8 -5.0 -0.2 70 1.9 WSW 41 48 22 26 1001.9 1002.2 11.2
23/07:30am 4.9 -5.4 0.1 71 1.9 WSW 44 57 24 31 1001.2 1001.5 11.2
23/07:00am 5.5 -6.3 0.7 71 1.9 WSW 52 74 28 40 1000.6 1000.9 11.2
23/06:59am 5.5 -6.6 0.7 71 1.9 WSW 54 74 29 40 1000.5 1000.8 11.2
23/06:30am 5.6 -5.2 2.1 78 1.4 WSW 48 57 26 31 999.4 999.8 11.2
23/06:10am 5.1 -2.3 3.8 91 0.6 W 32 50 17 27 999.2 999.5 11.2
23/06:00am 5.0 -3.7 4.1 94 0.4 WSW 39 52 21 28 998.9 999.2 11.2
23/05:38am 5.2 -3.0 4.9 98 0.1 WSW 37 61 20 33 998.4 998.7 10.6
23/05:30am 5.1 -3.9 4.7 97 0.2 WSW 41 54 22 29 998.1 998.4 10.6
23/05:13am 5.3 -4.5 5.2 99 0.0 WSW 46 67 25 36 997.4 997.7 10.6
23/05:00am 5.2 -5.4 5.1 99 0.0 WSW 50 65 27 35 997.1 997.4 10.4
23/04:38am 5.8 -2.9 5.8 100 0.0 W 41 61 22 33 996.8 997.1 9.6
23/04:30am 5.7 -3.1 5.7 100 0.0 W 41 52 22 28 996.8 997.1 9.4
23/04:00am 5.6 -3.2 5.6 100 0.0 W 41 50 22 27 995.9 996.1 9.2
23/03:30am 5.7 -3.1 5.7 100 0.0 WNW 41 50 22 27 995.4 995.7 9.2
23/03:00am 5.8 -2.6 5.8 100 0.0 W 39 48 21 26 995.4 995.7 8.8
23/02:30am 5.6 -2.0 5.6 100 0.0 W 35 41 19 22 994.6 994.9 8.0
23/02:00am 5.5 -2.6 5.2 98 0.1 W 37 50 20 27 993.8 994.1 8.0
23/01:30am 5.7 -4.5 5.0 95 0.3 W 48 70 26 38 992.5 992.7 8.0
23/01:27am 5.7 -4.5 5.1 96 0.3 W 48 70 26 38 992.3 992.5 8.0
23/01:03am 6.3 -5.1 4.9 91 0.6 W 54 74 29 40 990.2 990.5 8.0
23/01:00am 6.3 -5.6 5.1 92 0.5 W 57 91 31 49 990.2 990.5 8.0
23/12:59am 6.4 -5.9 5.2 92 0.5 W 59 91 32 49 990.2 990.5 8.0
23/12:52am 6.8 -7.9 5.6 92 0.5 WNW 72 96 39 52 989.7 989.9 8.0
23/12:30am 7.5 -6.2 5.6 88 0.9 NW 67 89 36 48 989.4 989.6 8.0
23/12:13am 7.5 -4.5 6.4 93 0.5 NW 59 80 32 43 990.4 990.7 7.8
23/12:00am 7.7 -4.4 6.2 90 0.7 NW 59 74 32 40 990.2 990.5 7.6
 
Date/Time
EST
Temp
°C
App
Temp
°C
Dew
Point
°C
Rel
Hum
%
Delta-T
°C
Wind Press
QNH
hPa
Press
MSL
hPa
Rain since
9am
mm
Dir  Spd
km/h
Gust
km/h
Spd
kts
Gust
kts
22/11:30pm 7.5 -2.8 6.4 93 0.5 NW 50 59 27 32 990.8 991.1 7.6
22/11:00pm 7.2 -2.0 6.5 95 0.3 NW 44 50 24 27 991.0 991.3 7.6
22/10:30pm 7.2 -1.9 6.1 93 0.5 NW 43 54 23 29 991.0 991.3 7.6
22/10:00pm 7.3 0.3 7.0 98 0.1 NW 33 39 18 21 991.9 992.1 7.6
22/09:30pm 7.3 -1.5 7.3 100 0.0 NW 43 54 23 29 992.3 992.5 7.4
22/09:17pm 8.0 -0.2 8.0 100 0.0 NW 41 63 22 34 992.7 992.9 6.6
22/09:00pm 8.3 3.4 8.3 100 0.0 NW 24 37 13 20 993.0 993.3 5.0
22/08:30pm 8.1 4.1 8.1 100 0.0 NW 19 20 10 11 993.3 993.6 4.0
22/08:00pm 8.4 4.4 8.4 100 0.0 WNW 19 22 10 12 994.0 994.3 4.0
22/07:30pm 8.3 5.1 8.3 100 0.0 NW 15 20 8 11 993.9 994.2 3.0
22/07:00pm 8.4 4.4 8.1 98 0.1 WNW 19 24 10 13 994.2 994.5 2.6
22/06:30pm 8.8 4.2 8.2 96 0.3 W 22 28 12 15 994.4 994.7 2.0
22/06:00pm 8.6 4.0 8.0 96 0.3 NW 22 28 12 15 994.2 994.5 2.0
22/05:30pm 9.2 4.6 8.0 92 0.6 WNW 22 28 12 15 994.3 994.6 2.0
22/05:00pm 10.1 5.3 8.7 91 0.7 W 24 32 13 17 994.3 994.6 2.0
22/04:30pm 10.3 4.1 9.2 93 0.6 W 32 44 17 24 994.3 994.6 2.0
22/04:00pm 10.2 3.0 9.0 92 0.6 W 37 44 20 24 993.9 994.2 2.0
22/03:30pm 11.4 3.6 8.3 81 1.5 W 39 56 21 30 993.7 994.0 2.0
22/03:20pm 11.6 5.4 9.2 85 1.2 W 32 50 17 27 993.6 993.9 2.0
22/03:00pm 11.6 3.7 9.5 87 1.1 WNW 41 50 22 27 993.7 994.0 2.0
22/02:30pm 11.8 3.5 9.4 85 1.2 WNW 43 61 23 33 993.8 994.1 2.0
22/02:00pm 11.4 3.1 10.0 91 0.7 WNW 44 54 24 29 993.6 993.9 2.0
22/01:30pm 10.5 1.7 9.7 95 0.4 WNW 46 54 25 29 993.8 994.1 2.0
22/01:00pm 9.7 -0.2 9.6 99 0.1 WNW 52 67 28 36 993.7 994.0 2.0
22/12:35pm 9.1 -3.5 8.8 98 0.1 W 65 83 35 45 993.7 994.0 1.2
22/12:30pm 8.9 -5.1 8.5 97 0.2 W 72 89 39 48 993.7 994.0 1.2
22/12:21pm 8.9 -3.9 8.1 95 0.4 W 65 89 35 48 993.5 993.8 0.4
22/12:13pm 11.1 0.0 7.8 80 1.6 WNW 56 74 30 40 994.1 994.4 0.0
22/12:03pm 13.6 2.3 9.6 77 2.1 NW 59 80 32 43 992.9 993.1 0.0
22/12:00pm 13.8 3.2 10.0 78 2.0 NW 56 72 30 39 992.9 993.1 0.0
22/11:30am 13.2 2.9 9.6 79 1.9 NW 54 70 29 38 993.7 994.0 0.0
22/11:00am 13.1 3.6 9.9 81 1.7 NW 50 59 27 32 994.1 994.4 0.0
22/10:30am 12.5 1.8 9.5 82 1.5 NW 56 67 30 36 994.2 994.5 0.0
22/10:00am 12.4 1.1 9.6 83 1.5 NW 59 69 32 37 994.3 994.6 0.0
22/09:30am 12.4 1.8 10.0 85 1.2 NW 56 63 30 34 994.6 994.9 0.0
22/09:00am 12.5 1.9 9.9 84 1.4 NW 56 67 30 36 994.9 995.2 16.8
22/08:50am 12.4 3.9 10.5 88 1.0 NW 46 67 25 36 995.0 995.3 16.8
22/08:30am 12.0 3.7 10.1 88 1.0 NW 44 52 24 28 995.5 995.8 16.8
22/08:00am 12.5 2.2 9.7 83 1.5 NW 54 67 29 36 995.3 995.6 16.8
22/07:30am 12.8 2.6 10.0 83 1.5 NW 54 67 29 36 995.9 996.1 16.8
22/07:00am 13.1 4.7 11.0 87 1.1 WNW 46 57 25 31 996.1 996.3 16.8
22/06:30am 12.9 5.8 12.1 95 0.4 NW 41 50 22 27 996.4 996.7 16.8
22/06:00am 12.7 6.4 12.2 97 0.3 NW 37 44 20 24 996.4 996.7 16.8
22/05:30am 12.8 4.8 12.5 98 0.2 WNW 46 54 25 29 996.7 997.0 16.8
22/05:00am 12.8 4.6 12.8 100 0.0 NW 48 57 26 31 996.5 996.8 16.6
22/04:30am 13.8 4.7 13.8 100 0.0 WNW 54 80 29 43 996.9 997.2 16.4
22/04:25am 14.1 2.3 14.1 100 0.0 WNW 69 93 37 50 997.3 997.6 16.4
22/04:23am 14.2 2.4 14.2 100 0.0 WNW 69 93 37 50 997.2 997.5 16.4
22/04:18am 14.3 4.1 14.3 100 0.0 NW 61 93 33 50 996.3 996.6 16.2
22/04:16am 14.1 4.8 14.1 100 0.0 NW 56 93 30 50 996.7 997.0 16.2
22/04:00am 13.9 6.4 13.9 100 0.0 NNW 46 54 25 29 997.2 997.5 10.8
22/03:30am 13.6 6.6 13.6 100 0.0 NNW 43 52 23 28 997.5 997.8 8.0
22/03:00am 13.3 5.6 13.3 100 0.0 N 46 56 25 30 997.7 998.0 6.6
22/02:30am 13.1 5.7 13.1 100 0.0 N 44 54 24 29 998.6 998.9 5.2
22/02:09am 13.2 3.9 13.2 100 0.0 N 54 70 29 38 999.5 999.9 3.4
22/02:00am 13.1 1.7 13.1 100 0.0 N 65 78 35 42 999.1 999.4 2.8
22/01:30am 13.4 1.4 13.4 100 0.0 N 69 83 37 45 998.9 999.2 1.4
22/01:00am 14.0 2.3 12.2 89 1.0 N 65 76 35 41 999.5 999.9 1.0

Other Formats:

Comma delimited format used in spreadsheet applications
http://www.bom.gov.au/fwo/IDV60801/IDV60801.95845.axf

JavaScript Object Notation format (JSON) in row-major order
http://www.bom.gov.au/fwo/IDV60801/IDV60801.95845.json